sensor_id;sensor_type;location;lat;lon;timestamp;P1;durP1;ratioP1;P2;durP2;ratioP2
18711;SDS011;9485;49.386;8.674;2023-04-05T00:03:22;2.90;;;2.60;;
18711;SDS011;9485;49.386;8.674;2023-04-05T00:08:44;3.33;;;2.73;;
18711;SDS011;9485;49.386;8.674;2023-04-05T00:14:07;3.47;;;2.60;;
18711;SDS011;9485;49.386;8.674;2023-04-05T00:19:28;4.33;;;2.80;;
18711;SDS011;9485;49.386;8.674;2023-04-05T00:24:52;4.83;;;2.70;;
18711;SDS011;9485;49.386;8.674;2023-04-05T00:30:13;3.60;;;2.50;;
18711;SDS011;9485;49.386;8.674;2023-04-05T00:35:38;4.10;;;2.40;;
18711;SDS011;9485;49.386;8.674;2023-04-05T00:41:00;2.73;;;2.53;;
18711;SDS011;9485;49.386;8.674;2023-04-05T00:46:22;3.13;;;2.43;;
18711;SDS011;9485;49.386;8.674;2023-04-05T00:51:43;3.50;;;2.97;;
18711;SDS011;9485;49.386;8.674;2023-04-05T00:57:06;2.90;;;2.60;;
18711;SDS011;9485;49.386;8.674;2023-04-05T01:02:27;2.87;;;2.53;;
18711;SDS011;9485;49.386;8.674;2023-04-05T01:07:56;2.50;;;2.30;;
18711;SDS011;9485;49.386;8.674;2023-04-05T01:13:29;3.33;;;2.40;;
18711;SDS011;9485;49.386;8.674;2023-04-05T01:18:51;5.20;;;2.50;;
18711;SDS011;9485;49.386;8.674;2023-04-05T01:24:15;3.00;;;2.70;;
18711;SDS011;9485;49.386;8.674;2023-04-05T01:29:54;2.40;;;1.80;;
18711;SDS011;9485;49.386;8.674;2023-04-05T01:35:26;2.40;;;2.20;;
18711;SDS011;9485;49.386;8.674;2023-04-05T01:40:56;2.63;;;2.43;;
18711;SDS011;9485;49.386;8.674;2023-04-05T01:46:18;2.13;;;2.03;;
18711;SDS011;9485;49.386;8.674;2023-04-05T01:51:39;3.87;;;2.80;;
18711;SDS011;9485;49.386;8.674;2023-04-05T01:57:00;3.33;;;2.50;;
18711;SDS011;9485;49.386;8.674;2023-04-05T02:02:22;3.63;;;2.70;;
18711;SDS011;9485;49.386;8.674;2023-04-05T02:07:43;3.13;;;2.83;;
18711;SDS011;9485;49.386;8.674;2023-04-05T02:13:03;2.40;;;2.20;;
18711;SDS011;9485;49.386;8.674;2023-04-05T02:18:25;2.30;;;2.07;;
18711;SDS011;9485;49.386;8.674;2023-04-05T02:23:49;3.73;;;2.67;;
18711;SDS011;9485;49.386;8.674;2023-04-05T02:29:10;2.73;;;2.53;;
18711;SDS011;9485;49.386;8.674;2023-04-05T02:34:32;2.97;;;2.70;;
18711;SDS011;9485;49.386;8.674;2023-04-05T02:39:53;2.30;;;2.20;;
18711;SDS011;9485;49.386;8.674;2023-04-05T02:45:14;3.40;;;2.30;;
18711;SDS011;9485;49.386;8.674;2023-04-05T02:50:36;3.50;;;2.50;;
18711;SDS011;9485;49.386;8.674;2023-04-05T02:55:57;2.73;;;2.53;;
18711;SDS011;9485;49.386;8.674;2023-04-05T03:01:20;3.20;;;2.47;;
18711;SDS011;9485;49.386;8.674;2023-04-05T03:06:43;2.90;;;2.53;;
18711;SDS011;9485;49.386;8.674;2023-04-05T03:12:08;2.60;;;2.40;;
18711;SDS011;9485;49.386;8.674;2023-04-05T03:17:33;3.07;;;2.50;;
18711;SDS011;9485;49.386;8.674;2023-04-05T03:22:57;2.97;;;2.40;;
18711;SDS011;9485;49.386;8.674;2023-04-05T03:28:22;2.83;;;2.30;;
18711;SDS011;9485;49.386;8.674;2023-04-05T03:33:46;3.37;;;2.30;;
18711;SDS011;9485;49.386;8.674;2023-04-05T03:39:09;3.23;;;2.20;;
18711;SDS011;9485;49.386;8.674;2023-04-05T03:44:32;2.40;;;2.27;;
18711;SDS011;9485;49.386;8.674;2023-04-05T03:49:52;2.50;;;2.27;;
18711;SDS011;9485;49.386;8.674;2023-04-05T03:55:14;3.33;;;2.07;;
18711;SDS011;9485;49.386;8.674;2023-04-05T04:00:37;2.40;;;2.20;;
18711;SDS011;9485;49.386;8.674;2023-04-05T04:06:11;2.70;;;2.50;;
18711;SDS011;9485;49.386;8.674;2023-04-05T04:11:33;2.53;;;2.33;;
18711;SDS011;9485;49.386;8.674;2023-04-05T04:16:57;2.43;;;2.20;;
18711;SDS011;9485;49.386;8.674;2023-04-05T04:22:54;2.40;;;2.17;;
18711;SDS011;9485;49.386;8.674;2023-04-05T04:28:46;2.60;;;2.40;;
18711;SDS011;9485;49.386;8.674;2023-04-05T04:34:28;2.70;;;2.20;;
18711;SDS011;9485;49.386;8.674;2023-04-05T04:40:01;2.13;;;2.03;;
18711;SDS011;9485;49.386;8.674;2023-04-05T04:45:40;2.40;;;2.20;;
18711;SDS011;9485;49.386;8.674;2023-04-05T04:51:22;3.73;;;2.40;;
18711;SDS011;9485;49.386;8.674;2023-04-05T04:56:42;2.67;;;2.47;;
18711;SDS011;9485;49.386;8.674;2023-04-05T05:02:05;2.77;;;2.57;;
18711;SDS011;9485;49.386;8.674;2023-04-05T05:07:25;3.07;;;2.60;;
18711;SDS011;9485;49.386;8.674;2023-04-05T05:12:46;2.43;;;2.23;;
18711;SDS011;9485;49.386;8.674;2023-04-05T05:18:09;2.50;;;2.30;;
18711;SDS011;9485;49.386;8.674;2023-04-05T05:23:30;5.93;;;3.00;;
18711;SDS011;9485;49.386;8.674;2023-04-05T05:28:50;5.93;;;3.13;;
18711;SDS011;9485;49.386;8.674;2023-04-05T05:34:14;2.97;;;2.77;;
18711;SDS011;9485;49.386;8.674;2023-04-05T05:39:41;3.13;;;2.33;;
18711;SDS011;9485;49.386;8.674;2023-04-05T05:45:04;5.60;;;2.90;;
18711;SDS011;9485;49.386;8.674;2023-04-05T05:50:27;3.60;;;3.00;;
18711;SDS011;9485;49.386;8.674;2023-04-05T05:55:50;3.47;;;3.17;;
18711;SDS011;9485;49.386;8.674;2023-04-05T06:01:11;6.40;;;3.30;;
18711;SDS011;9485;49.386;8.674;2023-04-05T06:06:34;5.13;;;3.67;;
18711;SDS011;9485;49.386;8.674;2023-04-05T06:11:55;6.47;;;4.30;;
18711;SDS011;9485;49.386;8.674;2023-04-05T06:17:16;6.90;;;4.20;;
18711;SDS011;9485;49.386;8.674;2023-04-05T06:22:38;5.80;;;4.90;;
18711;SDS011;9485;49.386;8.674;2023-04-05T06:28:00;7.10;;;4.23;;
18711;SDS011;9485;49.386;8.674;2023-04-05T06:33:23;5.40;;;4.20;;
18711;SDS011;9485;49.386;8.674;2023-04-05T06:38:45;6.23;;;4.30;;
18711;SDS011;9485;49.386;8.674;2023-04-05T06:44:06;4.83;;;3.97;;
18711;SDS011;9485;49.386;8.674;2023-04-05T06:49:27;8.73;;;4.67;;
18711;SDS011;9485;49.386;8.674;2023-04-05T06:54:50;6.10;;;5.00;;
18711;SDS011;9485;49.386;8.674;2023-04-05T07:00:12;6.77;;;4.90;;
18711;SDS011;9485;49.386;8.674;2023-04-05T07:05:35;4.60;;;3.93;;
18711;SDS011;9485;49.386;8.674;2023-04-05T07:10:57;4.63;;;4.13;;
18711;SDS011;9485;49.386;8.674;2023-04-05T07:16:18;5.63;;;4.10;;
18711;SDS011;9485;49.386;8.674;2023-04-05T07:21:40;5.07;;;3.87;;
18711;SDS011;9485;49.386;8.674;2023-04-05T07:27:03;7.60;;;4.10;;
18711;SDS011;9485;49.386;8.674;2023-04-05T07:32:24;5.17;;;4.20;;
18711;SDS011;9485;49.386;8.674;2023-04-05T07:37:45;4.10;;;3.50;;
18711;SDS011;9485;49.386;8.674;2023-04-05T07:43:07;3.50;;;3.20;;
18711;SDS011;9485;49.386;8.674;2023-04-05T07:48:28;4.13;;;3.30;;
18711;SDS011;9485;49.386;8.674;2023-04-05T07:53:50;4.80;;;3.73;;
18711;SDS011;9485;49.386;8.674;2023-04-05T07:59:12;4.03;;;3.00;;
18711;SDS011;9485;49.386;8.674;2023-04-05T08:04:33;2.97;;;2.67;;
18711;SDS011;9485;49.386;8.674;2023-04-05T08:09:54;4.53;;;2.63;;
18711;SDS011;9485;49.386;8.674;2023-04-05T08:15:17;3.40;;;2.60;;
18711;SDS011;9485;49.386;8.674;2023-04-05T08:20:37;2.70;;;2.50;;
18711;SDS011;9485;49.386;8.674;2023-04-05T08:25:58;3.43;;;3.13;;
18711;SDS011;9485;49.386;8.674;2023-04-05T08:31:21;3.57;;;2.90;;
18711;SDS011;9485;49.386;8.674;2023-04-05T08:36:42;2.95;;;2.72;;
18711;SDS011;9485;49.386;8.674;2023-04-05T08:42:03;4.13;;;3.05;;
18711;SDS011;9485;49.386;8.674;2023-04-05T08:47:31;3.10;;;2.78;;
18711;SDS011;9485;49.386;8.674;2023-04-05T08:52:56;3.00;;;2.63;;
18711;SDS011;9485;49.386;8.674;2023-04-05T08:58:17;3.58;;;3.10;;
18711;SDS011;9485;49.386;8.674;2023-04-05T09:03:42;2.92;;;2.60;;
18711;SDS011;9485;49.386;8.674;2023-04-05T09:09:06;2.97;;;2.67;;
18711;SDS011;9485;49.386;8.674;2023-04-05T09:14:27;3.72;;;2.28;;
18711;SDS011;9485;49.386;8.674;2023-04-05T09:19:53;2.90;;;2.70;;
18711;SDS011;9485;49.386;8.674;2023-04-05T09:25:28;3.55;;;2.55;;
18711;SDS011;9485;49.386;8.674;2023-04-05T09:30:56;2.45;;;2.10;;
18711;SDS011;9485;49.386;8.674;2023-04-05T09:36:18;3.20;;;2.90;;
18711;SDS011;9485;49.386;8.674;2023-04-05T09:41:39;2.53;;;2.30;;
18711;SDS011;9485;49.386;8.674;2023-04-05T09:47:10;6.50;;;2.95;;
18711;SDS011;9485;49.386;8.674;2023-04-05T09:52:37;3.67;;;2.90;;
18711;SDS011;9485;49.386;8.674;2023-04-05T09:57:58;3.75;;;2.63;;
18711;SDS011;9485;49.386;8.674;2023-04-05T10:03:20;3.78;;;2.88;;
18711;SDS011;9485;49.386;8.674;2023-04-05T10:08:46;3.00;;;2.70;;
18711;SDS011;9485;49.386;8.674;2023-04-05T10:14:09;3.67;;;2.83;;
18711;SDS011;9485;49.386;8.674;2023-04-05T10:19:31;4.80;;;2.90;;
18711;SDS011;9485;49.386;8.674;2023-04-05T10:25:11;3.58;;;3.10;;
18711;SDS011;9485;49.386;8.674;2023-04-05T10:30:45;3.83;;;3.00;;
18711;SDS011;9485;49.386;8.674;2023-04-05T10:36:11;2.92;;;2.63;;
18711;SDS011;9485;49.386;8.674;2023-04-05T10:41:45;4.00;;;2.58;;
18711;SDS011;9485;49.386;8.674;2023-04-05T10:47:08;3.63;;;2.67;;
18711;SDS011;9485;49.386;8.674;2023-04-05T10:52:36;2.90;;;2.33;;
18711;SDS011;9485;49.386;8.674;2023-04-05T10:57:59;2.63;;;2.42;;
18711;SDS011;9485;49.386;8.674;2023-04-05T11:03:40;3.28;;;2.70;;
18711;SDS011;9485;49.386;8.674;2023-04-05T11:09:09;3.80;;;2.83;;
18711;SDS011;9485;49.386;8.674;2023-04-05T11:14:35;3.42;;;2.88;;
18711;SDS011;9485;49.386;8.674;2023-04-05T11:20:01;3.15;;;2.85;;
18711;SDS011;9485;49.386;8.674;2023-04-05T11:25:23;3.08;;;2.78;;
18711;SDS011;9485;49.386;8.674;2023-04-05T11:30:46;5.65;;;3.20;;
18711;SDS011;9485;49.386;8.674;2023-04-05T11:36:09;4.22;;;3.25;;
18711;SDS011;9485;49.386;8.674;2023-04-05T11:41:33;4.35;;;3.92;;
18711;SDS011;9485;49.386;8.674;2023-04-05T11:46:55;2.80;;;2.60;;
18711;SDS011;9485;49.386;8.674;2023-04-05T11:52:17;3.45;;;2.60;;
18711;SDS011;9485;49.386;8.674;2023-04-05T11:57:40;3.70;;;3.40;;
18711;SDS011;9485;49.386;8.674;2023-04-05T12:03:02;3.45;;;3.13;;
18711;SDS011;9485;49.386;8.674;2023-04-05T12:08:36;3.65;;;3.10;;
18711;SDS011;9485;49.386;8.674;2023-04-05T12:14:00;3.22;;;2.92;;
18711;SDS011;9485;49.386;8.674;2023-04-05T12:19:23;3.20;;;2.90;;
18711;SDS011;9485;49.386;8.674;2023-04-05T12:24:50;3.22;;;2.65;;
18711;SDS011;9485;49.386;8.674;2023-04-05T12:30:12;2.45;;;2.25;;
18711;SDS011;9485;49.386;8.674;2023-04-05T12:35:37;7.35;;;4.00;;
18711;SDS011;9485;49.386;8.674;2023-04-05T12:40:58;3.70;;;3.10;;
18711;SDS011;9485;49.386;8.674;2023-04-05T12:46:21;3.22;;;2.92;;
18711;SDS011;9485;49.386;8.674;2023-04-05T12:52:00;3.13;;;2.83;;
18711;SDS011;9485;49.386;8.674;2023-04-05T12:57:27;3.13;;;2.83;;
18711;SDS011;9485;49.386;8.674;2023-04-05T13:02:50;4.63;;;2.90;;
18711;SDS011;9485;49.386;8.674;2023-04-05T13:08:13;2.67;;;2.47;;
18711;SDS011;9485;49.386;8.674;2023-04-05T13:13:36;3.30;;;3.00;;
18711;SDS011;9485;49.386;8.674;2023-04-05T13:18:57;3.95;;;2.63;;
18711;SDS011;9485;49.386;8.674;2023-04-05T13:24:19;3.30;;;3.00;;
18711;SDS011;9485;49.386;8.674;2023-04-05T13:29:40;3.20;;;2.90;;
18711;SDS011;9485;49.386;8.674;2023-04-05T13:35:01;3.35;;;3.05;;
18711;SDS011;9485;49.386;8.674;2023-04-05T13:40:25;2.70;;;2.50;;
18711;SDS011;9485;49.386;8.674;2023-04-05T13:45:46;6.00;;;3.20;;
18711;SDS011;9485;49.386;8.674;2023-04-05T13:51:06;3.65;;;2.95;;
18711;SDS011;9485;49.386;8.674;2023-04-05T13:56:29;3.25;;;2.95;;
18711;SDS011;9485;49.386;8.674;2023-04-05T14:01:50;3.05;;;2.80;;
18711;SDS011;9485;49.386;8.674;2023-04-05T14:07:11;4.47;;;3.40;;
18711;SDS011;9485;49.386;8.674;2023-04-05T14:12:33;4.53;;;2.83;;
18711;SDS011;9485;49.386;8.674;2023-04-05T14:17:55;2.75;;;2.55;;
18711;SDS011;9485;49.386;8.674;2023-04-05T14:23:15;3.38;;;3.08;;
18711;SDS011;9485;49.386;8.674;2023-04-05T14:28:38;3.83;;;3.15;;
18711;SDS011;9485;49.386;8.674;2023-04-05T14:33:58;4.50;;;3.25;;
18711;SDS011;9485;49.386;8.674;2023-04-05T14:39:19;3.63;;;3.20;;
18711;SDS011;9485;49.386;8.674;2023-04-05T14:44:42;3.47;;;2.85;;
18711;SDS011;9485;49.386;8.674;2023-04-05T14:50:04;3.05;;;2.75;;
18711;SDS011;9485;49.386;8.674;2023-04-05T14:55:26;3.28;;;2.63;;
18711;SDS011;9485;49.386;8.674;2023-04-05T15:00:48;4.05;;;2.58;;
18711;SDS011;9485;49.386;8.674;2023-04-05T15:06:09;3.33;;;3.03;;
18711;SDS011;9485;49.386;8.674;2023-04-05T15:11:30;3.95;;;2.90;;
18711;SDS011;9485;49.386;8.674;2023-04-05T15:16:54;3.90;;;3.50;;
18711;SDS011;9485;49.386;8.674;2023-04-05T15:22:15;3.72;;;3.15;;
18711;SDS011;9485;49.386;8.674;2023-04-05T15:27:38;4.78;;;3.03;;
18711;SDS011;9485;49.386;8.674;2023-04-05T15:33:00;4.73;;;2.77;;
18711;SDS011;9485;49.386;8.674;2023-04-05T15:38:21;3.40;;;3.07;;
18711;SDS011;9485;49.386;8.674;2023-04-05T15:43:42;5.03;;;3.30;;
18711;SDS011;9485;49.386;8.674;2023-04-05T15:49:04;3.20;;;2.90;;
18711;SDS011;9485;49.386;8.674;2023-04-05T15:54:26;4.07;;;2.90;;
18711;SDS011;9485;49.386;8.674;2023-04-05T15:59:47;4.73;;;3.80;;
18711;SDS011;9485;49.386;8.674;2023-04-05T16:05:10;3.40;;;3.10;;
18711;SDS011;9485;49.386;8.674;2023-04-05T16:10:31;4.47;;;3.07;;
18711;SDS011;9485;49.386;8.674;2023-04-05T16:15:53;3.40;;;2.83;;
18711;SDS011;9485;49.386;8.674;2023-04-05T16:21:15;3.50;;;3.20;;
18711;SDS011;9485;49.386;8.674;2023-04-05T16:26:36;3.90;;;3.50;;
18711;SDS011;9485;49.386;8.674;2023-04-05T16:31:57;4.27;;;3.30;;
18711;SDS011;9485;49.386;8.674;2023-04-05T16:37:19;5.37;;;2.97;;
18711;SDS011;9485;49.386;8.674;2023-04-05T16:42:40;5.10;;;3.17;;
18711;SDS011;9485;49.386;8.674;2023-04-05T16:48:01;5.00;;;3.33;;
18711;SDS011;9485;49.386;8.674;2023-04-05T16:53:23;3.03;;;2.73;;
18711;SDS011;9485;49.386;8.674;2023-04-05T16:58:44;5.13;;;3.77;;
18711;SDS011;9485;49.386;8.674;2023-04-05T17:04:05;3.53;;;2.97;;
18711;SDS011;9485;49.386;8.674;2023-04-05T17:09:27;5.13;;;3.00;;
18711;SDS011;9485;49.386;8.674;2023-04-05T17:14:47;3.77;;;3.40;;
18711;SDS011;9485;49.386;8.674;2023-04-05T17:20:09;3.40;;;2.97;;
18711;SDS011;9485;49.386;8.674;2023-04-05T17:25:32;6.80;;;4.53;;
18711;SDS011;9485;49.386;8.674;2023-04-05T17:30:54;20.83;;;11.43;;
18711;SDS011;9485;49.386;8.674;2023-04-05T17:36:15;18.83;;;11.80;;
18711;SDS011;9485;49.386;8.674;2023-04-05T17:41:37;27.87;;;20.33;;
18711;SDS011;9485;49.386;8.674;2023-04-05T17:46:58;119.87;;;80.50;;
18711;SDS011;9485;49.386;8.674;2023-04-05T17:52:21;199.37;;;113.40;;
18711;SDS011;9485;49.386;8.674;2023-04-05T17:57:43;139.37;;;91.20;;
18711;SDS011;9485;49.386;8.674;2023-04-05T18:03:04;84.30;;;55.57;;
18711;SDS011;9485;49.386;8.674;2023-04-05T18:08:25;34.20;;;25.63;;
18711;SDS011;9485;49.386;8.674;2023-04-05T18:13:48;22.97;;;15.10;;
18711;SDS011;9485;49.386;8.674;2023-04-05T18:19:09;15.00;;;11.27;;
18711;SDS011;9485;49.386;8.674;2023-04-05T18:24:30;14.50;;;8.80;;
18711;SDS011;9485;49.386;8.674;2023-04-05T18:29:52;9.70;;;7.07;;
18711;SDS011;9485;49.386;8.674;2023-04-05T18:35:14;7.70;;;5.70;;
18711;SDS011;9485;49.386;8.674;2023-04-05T18:40:35;9.27;;;6.60;;
18711;SDS011;9485;49.386;8.674;2023-04-05T18:45:57;10.20;;;7.20;;
18711;SDS011;9485;49.386;8.674;2023-04-05T18:51:17;10.70;;;7.70;;
18711;SDS011;9485;49.386;8.674;2023-04-05T18:56:38;15.83;;;9.70;;
18711;SDS011;9485;49.386;8.674;2023-04-05T19:02:00;11.47;;;8.70;;
18711;SDS011;9485;49.386;8.674;2023-04-05T19:07:22;11.87;;;8.53;;
18711;SDS011;9485;49.386;8.674;2023-04-05T19:12:42;14.33;;;9.03;;
18711;SDS011;9485;49.386;8.674;2023-04-05T19:18:04;14.73;;;9.97;;
18711;SDS011;9485;49.386;8.674;2023-04-05T19:23:25;19.07;;;11.40;;
18711;SDS011;9485;49.386;8.674;2023-04-05T19:28:47;13.00;;;8.67;;
18711;SDS011;9485;49.386;8.674;2023-04-05T19:34:09;45.53;;;23.87;;
18711;SDS011;9485;49.386;8.674;2023-04-05T19:39:31;45.93;;;25.43;;
18711;SDS011;9485;49.386;8.674;2023-04-05T19:44:55;31.57;;;16.83;;
18711;SDS011;9485;49.386;8.674;2023-04-05T19:50:38;15.43;;;11.17;;
18711;SDS011;9485;49.386;8.674;2023-04-05T19:56:08;14.40;;;9.90;;
18711;SDS011;9485;49.386;8.674;2023-04-05T20:01:33;14.07;;;9.63;;
18711;SDS011;9485;49.386;8.674;2023-04-05T20:06:58;18.03;;;11.43;;
18711;SDS011;9485;49.386;8.674;2023-04-05T20:12:20;19.73;;;13.73;;
18711;SDS011;9485;49.386;8.674;2023-04-05T20:17:41;19.90;;;13.87;;
18711;SDS011;9485;49.386;8.674;2023-04-05T20:23:04;16.60;;;12.23;;
18711;SDS011;9485;49.386;8.674;2023-04-05T20:28:29;19.90;;;12.00;;
18711;SDS011;9485;49.386;8.674;2023-04-05T20:34:03;15.17;;;9.70;;
18711;SDS011;9485;49.386;8.674;2023-04-05T20:39:30;16.23;;;9.63;;
18711;SDS011;9485;49.386;8.674;2023-04-05T20:44:50;12.83;;;9.10;;
18711;SDS011;9485;49.386;8.674;2023-04-05T20:50:11;12.40;;;8.50;;
18711;SDS011;9485;49.386;8.674;2023-04-05T20:55:33;14.80;;;10.13;;
18711;SDS011;9485;49.386;8.674;2023-04-05T21:00:54;15.53;;;11.30;;
18711;SDS011;9485;49.386;8.674;2023-04-05T21:06:22;16.93;;;9.70;;
18711;SDS011;9485;49.386;8.674;2023-04-05T21:11:43;9.00;;;7.00;;
18711;SDS011;9485;49.386;8.674;2023-04-05T21:17:04;12.27;;;8.20;;
18711;SDS011;9485;49.386;8.674;2023-04-05T21:22:25;13.60;;;8.83;;
18711;SDS011;9485;49.386;8.674;2023-04-05T21:27:47;9.63;;;7.83;;
18711;SDS011;9485;49.386;8.674;2023-04-05T21:33:08;9.67;;;7.63;;
18711;SDS011;9485;49.386;8.674;2023-04-05T21:38:29;11.57;;;8.47;;
18711;SDS011;9485;49.386;8.674;2023-04-05T21:43:51;11.73;;;8.43;;
18711;SDS011;9485;49.386;8.674;2023-04-05T21:49:12;10.67;;;8.60;;
18711;SDS011;9485;49.386;8.674;2023-04-05T21:54:33;13.53;;;8.90;;
18711;SDS011;9485;49.386;8.674;2023-04-05T21:59:55;12.47;;;8.23;;
18711;SDS011;9485;49.386;8.674;2023-04-05T22:05:16;12.67;;;8.87;;
18711;SDS011;9485;49.386;8.674;2023-04-05T22:10:37;15.27;;;8.93;;
18711;SDS011;9485;49.386;8.674;2023-04-05T22:15:59;10.23;;;7.57;;
18711;SDS011;9485;49.386;8.674;2023-04-05T22:21:20;13.13;;;8.00;;
18711;SDS011;9485;49.386;8.674;2023-04-05T22:26:41;14.63;;;9.57;;
18711;SDS011;9485;49.386;8.674;2023-04-05T22:32:03;13.20;;;9.20;;
18711;SDS011;9485;49.386;8.674;2023-04-05T22:37:24;13.23;;;8.50;;
18711;SDS011;9485;49.386;8.674;2023-04-05T22:42:45;18.00;;;10.43;;
18711;SDS011;9485;49.386;8.674;2023-04-05T22:48:07;15.97;;;9.23;;
18711;SDS011;9485;49.386;8.674;2023-04-05T22:53:28;13.10;;;9.30;;
18711;SDS011;9485;49.386;8.674;2023-04-05T22:58:48;12.53;;;9.23;;
18711;SDS011;9485;49.386;8.674;2023-04-05T23:04:11;11.70;;;8.57;;
18711;SDS011;9485;49.386;8.674;2023-04-05T23:09:31;10.53;;;8.07;;
18711;SDS011;9485;49.386;8.674;2023-04-05T23:14:52;14.00;;;7.50;;
18711;SDS011;9485;49.386;8.674;2023-04-05T23:20:16;12.83;;;8.57;;
18711;SDS011;9485;49.386;8.674;2023-04-05T23:25:37;14.30;;;9.33;;
18711;SDS011;9485;49.386;8.674;2023-04-05T23:30:58;14.87;;;9.43;;
18711;SDS011;9485;49.386;8.674;2023-04-05T23:36:20;10.73;;;8.40;;
18711;SDS011;9485;49.386;8.674;2023-04-05T23:41:40;11.40;;;8.27;;
18711;SDS011;9485;49.386;8.674;2023-04-05T23:47:02;10.67;;;8.30;;
18711;SDS011;9485;49.386;8.674;2023-04-05T23:52:24;11.70;;;8.60;;
18711;SDS011;9485;49.386;8.674;2023-04-05T23:57:45;11.80;;;8.63;;
